Terminal Aerodrome Forecast
Issued by NWS

Home | Current Version | Previous Version | Text Only | Print | Product List | Glossary On
Versions: 1 2 3 4 5 6 7 8 9 10 11 12 13 14 15
286
FTUS43 KEAX 191725
TAFMKC
TAF
KMKC 191725Z 1918/2018 13006KT P6SM SKC
     FM201100 VRB04KT P6SM VCTS BKN060CB OVC100
     FM201300 16011KT P6SM SCT100 BKN200=

USA.gov is the U.S. government's official web portal to all federal, state and local government web resources and services.